sensor_id;sensor_type;location;lat;lon;timestamp;pressure;altitude;pressure_sealevel;temperature;humidity
73429;BME280;61643;49.564;17.412;2023-05-22T00:00:37;98220.69;;;16.07;76.72
73429;BME280;61643;49.564;17.412;2023-05-22T00:03:04;98215.84;;;16.04;77.11
73429;BME280;61643;49.564;17.412;2023-05-22T00:05:30;98214.19;;;16.08;78.26
73429;BME280;61643;49.564;17.412;2023-05-22T00:07:59;98220.31;;;15.95;77.23
73429;BME280;61643;49.564;17.412;2023-05-22T00:10:25;98211.59;;;15.98;77.46
73429;BME280;61643;49.564;17.412;2023-05-22T00:12:50;98209.41;;;16.00;78.32
73429;BME280;61643;49.564;17.412;2023-05-22T00:15:16;98216.28;;;15.93;79.72
73429;BME280;61643;49.564;17.412;2023-05-22T00:17:42;98215.25;;;15.89;79.69
73429;BME280;61643;49.564;17.412;2023-05-22T00:20:09;98207.22;;;15.79;80.27
73429;BME280;61643;49.564;17.412;2023-05-22T00:22:35;98208.63;;;15.76;79.86
73429;BME280;61643;49.564;17.412;2023-05-22T00:25:02;98210.56;;;15.70;79.83
73429;BME280;61643;49.564;17.412;2023-05-22T00:27:28;98207.34;;;15.68;80.37
73429;BME280;61643;49.564;17.412;2023-05-22T00:29:54;98208.53;;;15.62;79.01
73429;BME280;61643;49.564;17.412;2023-05-22T00:32:20;98199.03;;;15.60;80.41
73429;BME280;61643;49.564;17.412;2023-05-22T00:34:46;98199.34;;;15.58;81.09
73429;BME280;61643;49.564;17.412;2023-05-22T00:37:12;98197.53;;;15.49;82.15
73429;BME280;61643;49.564;17.412;2023-05-22T00:39:38;98191.25;;;15.48;81.65
73429;BME280;61643;49.564;17.412;2023-05-22T00:42:04;98193.47;;;15.46;81.94
73429;BME280;61643;49.564;17.412;2023-05-22T00:44:30;98186.94;;;15.23;84.03
73429;BME280;61643;49.564;17.412;2023-05-22T00:46:56;98198.91;;;15.22;83.54
73429;BME280;61643;49.564;17.412;2023-05-22T00:49:22;98197.41;;;15.06;84.55
73429;BME280;61643;49.564;17.412;2023-05-22T00:51:48;98194.22;;;14.99;84.29
73429;BME280;61643;49.564;17.412;2023-05-22T00:54:15;98192.09;;;14.96;84.38
73429;BME280;61643;49.564;17.412;2023-05-22T00:56:42;98189.19;;;14.88;85.72
73429;BME280;61643;49.564;17.412;2023-05-22T00:59:08;98194.44;;;14.79;86.18
73429;BME280;61643;49.564;17.412;2023-05-22T01:01:34;98191.41;;;14.81;85.49
73429;BME280;61643;49.564;17.412;2023-05-22T01:04:04;98200.84;;;14.88;85.41
73429;BME280;61643;49.564;17.412;2023-05-22T01:06:32;98192.81;;;14.78;85.13
73429;BME280;61643;49.564;17.412;2023-05-22T01:08:58;98187.47;;;14.68;85.45
73429;BME280;61643;49.564;17.412;2023-05-22T01:11:28;98192.69;;;14.59;86.25
73429;BME280;61643;49.564;17.412;2023-05-22T01:16:51;98192.63;;;14.25;88.15
73429;BME280;61643;49.564;17.412;2023-05-22T01:31:26;98203.56;;;14.05;88.49
73429;BME280;61643;49.564;17.412;2023-05-22T01:33:55;98201.44;;;14.02;88.20
73429;BME280;61643;49.564;17.412;2023-05-22T01:36:25;98201.19;;;13.99;87.46
73429;BME280;61643;49.564;17.412;2023-05-22T01:38:53;98203.66;;;13.90;87.91
73429;BME280;61643;49.564;17.412;2023-05-22T01:41:19;98206.94;;;13.82;88.76
73429;BME280;61643;49.564;17.412;2023-05-22T01:43:46;98214.00;;;13.73;88.81
73429;BME280;61643;49.564;17.412;2023-05-22T01:46:12;98215.44;;;13.55;90.55
73429;BME280;61643;49.564;17.412;2023-05-22T01:48:38;98213.03;;;13.49;91.32
73429;BME280;61643;49.564;17.412;2023-05-22T01:51:12;98219.25;;;13.39;92.77
73429;BME280;61643;49.564;17.412;2023-05-22T01:53:56;98217.09;;;13.36;92.37
73429;BME280;61643;49.564;17.412;2023-05-22T01:56:34;98218.22;;;13.30;92.85
73429;BME280;61643;49.564;17.412;2023-05-22T01:59:23;98209.88;;;13.16;93.34
73429;BME280;61643;49.564;17.412;2023-05-22T02:01:51;98223.63;;;13.10;94.25
73429;BME280;61643;49.564;17.412;2023-05-22T02:04:18;98212.56;;;12.96;95.67
73429;BME280;61643;49.564;17.412;2023-05-22T02:06:46;98220.38;;;13.03;95.47
73429;BME280;61643;49.564;17.412;2023-05-22T02:09:14;98216.59;;;13.04;95.70
73429;BME280;61643;49.564;17.412;2023-05-22T02:11:42;98223.66;;;12.95;95.84
73429;BME280;61643;49.564;17.412;2023-05-22T02:14:08;98201.19;;;13.04;95.07
73429;BME280;61643;49.564;17.412;2023-05-22T02:16:37;98208.50;;;12.94;96.64
73429;BME280;61643;49.564;17.412;2023-05-22T02:19:03;98208.50;;;12.89;97.00
73429;BME280;61643;49.564;17.412;2023-05-22T02:21:35;98214.44;;;12.86;97.01
73429;BME280;61643;49.564;17.412;2023-05-22T02:24:01;98216.59;;;12.89;96.73
73429;BME280;61643;49.564;17.412;2023-05-22T02:26:27;98219.84;;;12.96;96.02
73429;BME280;61643;49.564;17.412;2023-05-22T02:28:53;98206.34;;;13.01;95.59
73429;BME280;61643;49.564;17.412;2023-05-22T02:31:19;98212.56;;;13.01;94.48
73429;BME280;61643;49.564;17.412;2023-05-22T02:33:45;98213.09;;;12.98;95.25
73429;BME280;61643;49.564;17.412;2023-05-22T02:36:11;98199.03;;;12.96;94.34
73429;BME280;61643;49.564;17.412;2023-05-22T02:38:39;98205.25;;;12.97;93.93
73429;BME280;61643;49.564;17.412;2023-05-22T02:41:06;98202.03;;;12.79;96.00
73429;BME280;61643;49.564;17.412;2023-05-22T02:43:32;98202.84;;;12.75;96.68
73429;BME280;61643;49.564;17.412;2023-05-22T02:45:58;98198.00;;;12.72;96.83
73429;BME280;61643;49.564;17.412;2023-05-22T02:48:24;98193.66;;;12.61;98.03
73429;BME280;61643;49.564;17.412;2023-05-22T02:50:50;98200.13;;;12.50;97.92
73429;BME280;61643;49.564;17.412;2023-05-22T02:53:16;98202.03;;;12.44;99.05
73429;BME280;61643;49.564;17.412;2023-05-22T02:55:42;98201.50;;;12.47;99.25
73429;BME280;61643;49.564;17.412;2023-05-22T02:58:10;98205.81;;;12.43;98.43
73429;BME280;61643;49.564;17.412;2023-05-22T03:00:37;98201.78;;;12.41;98.22
73429;BME280;61643;49.564;17.412;2023-05-22T03:03:03;98204.19;;;12.42;97.50
73429;BME280;61643;49.564;17.412;2023-05-22T03:05:30;98207.16;;;12.46;97.42
73429;BME280;61643;49.564;17.412;2023-05-22T03:07:56;98207.69;;;12.38;97.24
73429;BME280;61643;49.564;17.412;2023-05-22T03:10:23;98208.72;;;12.16;98.28
73429;BME280;61643;49.564;17.412;2023-05-22T03:12:49;98214.41;;;12.15;98.44
73429;BME280;61643;49.564;17.412;2023-05-22T03:15:19;98210.88;;;12.14;98.33
73429;BME280;61643;49.564;17.412;2023-05-22T03:17:45;98213.84;;;12.13;98.41
73429;BME280;61643;49.564;17.412;2023-05-22T03:20:11;98204.44;;;12.30;97.31
73429;BME280;61643;49.564;17.412;2023-05-22T03:22:42;98216.84;;;12.21;98.66
73429;BME280;61643;49.564;17.412;2023-05-22T03:25:09;98207.69;;;12.38;97.73
73429;BME280;61643;49.564;17.412;2023-05-22T03:27:37;98214.44;;;12.45;97.15
73429;BME280;61643;49.564;17.412;2023-05-22T03:30:04;98205.25;;;12.26;98.88
73429;BME280;61643;49.564;17.412;2023-05-22T03:32:30;98211.97;;;12.33;98.82
73429;BME280;61643;49.564;17.412;2023-05-22T03:34:56;98212.53;;;12.30;99.51
73429;BME280;61643;49.564;17.412;2023-05-22T03:37:23;98213.63;;;12.40;98.26
73429;BME280;61643;49.564;17.412;2023-05-22T03:39:49;98214.72;;;12.54;96.98
73429;BME280;61643;49.564;17.412;2023-05-22T03:42:15;98217.16;;;12.65;95.26
73429;BME280;61643;49.564;17.412;2023-05-22T03:44:41;98212.84;;;12.69;96.33
73429;BME280;61643;49.564;17.412;2023-05-22T03:47:07;98214.75;;;12.69;97.64
73429;BME280;61643;49.564;17.412;2023-05-22T03:49:33;98206.38;;;12.65;97.63
73429;BME280;61643;49.564;17.412;2023-05-22T03:51:59;98214.19;;;12.62;98.24
73429;BME280;61643;49.564;17.412;2023-05-22T03:54:25;98213.09;;;12.93;96.92
73429;BME280;61643;49.564;17.412;2023-05-22T03:56:51;98208.22;;;13.10;95.90
73429;BME280;61643;49.564;17.412;2023-05-22T03:59:17;98208.50;;;13.04;95.42
73429;BME280;61643;49.564;17.412;2023-05-22T04:01:43;98205.25;;;13.27;94.75
73429;BME280;61643;49.564;17.412;2023-05-22T04:04:11;98205.78;;;13.24;94.66
73429;BME280;61643;49.564;17.412;2023-05-22T04:06:37;98199.78;;;13.42;94.95
73429;BME280;61643;49.564;17.412;2023-05-22T04:09:11;98211.56;;;13.71;94.39
73429;BME280;61643;49.564;17.412;2023-05-22T04:11:38;98203.94;;;13.84;93.88
73429;BME280;61643;49.564;17.412;2023-05-22T04:14:07;98203.56;;;14.05;92.32
73429;BME280;61643;49.564;17.412;2023-05-22T04:16:34;98214.84;;;14.22;91.13
73429;BME280;61643;49.564;17.412;2023-05-22T04:19:00;98216.97;;;14.30;90.79
73429;BME280;61643;49.564;17.412;2023-05-22T04:21:30;98212.06;;;14.38;90.45
73429;BME280;61643;49.564;17.412;2023-05-22T04:23:59;98211.72;;;14.49;90.41
73429;BME280;61643;49.564;17.412;2023-05-22T04:26:32;98217.88;;;14.60;89.74
73429;BME280;61643;49.564;17.412;2023-05-22T04:28:58;98213.75;;;14.67;89.81
73429;BME280;61643;49.564;17.412;2023-05-22T04:31:24;98215.00;;;14.80;90.74
73429;BME280;61643;49.564;17.412;2023-05-22T04:33:50;98213.25;;;14.94;89.97
73429;BME280;61643;49.564;17.412;2023-05-22T04:36:16;98204.72;;;15.06;89.11
73429;BME280;61643;49.564;17.412;2023-05-22T04:38:42;98206.25;;;15.17;88.22
73429;BME280;61643;49.564;17.412;2023-05-22T04:41:10;98208.59;;;15.28;88.60
73429;BME280;61643;49.564;17.412;2023-05-22T04:43:38;98206.28;;;15.41;88.71
73429;BME280;61643;49.564;17.412;2023-05-22T04:46:05;98213.75;;;15.54;89.04
73429;BME280;61643;49.564;17.412;2023-05-22T04:48:33;98210.47;;;15.57;89.50
73429;BME280;61643;49.564;17.412;2023-05-22T04:51:02;98211.88;;;15.54;89.77
73429;BME280;61643;49.564;17.412;2023-05-22T04:53:29;98210.41;;;15.86;88.06
73429;BME280;61643;49.564;17.412;2023-05-22T04:55:56;98202.47;;;15.89;84.68
73429;BME280;61643;49.564;17.412;2023-05-22T04:58:22;98204.41;;;16.07;83.91
73429;BME280;61643;49.564;17.412;2023-05-22T05:00:54;98203.63;;;16.25;81.93
73429;BME280;61643;49.564;17.412;2023-05-22T05:03:22;98198.19;;;16.44;81.62
73429;BME280;61643;49.564;17.412;2023-05-22T05:05:51;98192.91;;;16.53;79.30
73429;BME280;61643;49.564;17.412;2023-05-22T05:08:17;98195.75;;;16.61;77.15
73429;BME280;61643;49.564;17.412;2023-05-22T05:10:43;98195.97;;;16.65;75.94
73429;BME280;61643;49.564;17.412;2023-05-22T05:13:09;98189.44;;;16.66;75.52
73429;BME280;61643;49.564;17.412;2023-05-22T05:15:35;98194.34;;;16.64;74.71
73429;BME280;61643;49.564;17.412;2023-05-22T05:18:01;98198.09;;;16.68;74.83
73429;BME280;61643;49.564;17.412;2023-05-22T05:20:27;98193.91;;;16.76;76.09
73429;BME280;61643;49.564;17.412;2023-05-22T05:22:53;98201.97;;;16.81;76.47
73429;BME280;61643;49.564;17.412;2023-05-22T05:25:19;98201.59;;;16.87;77.55
73429;BME280;61643;49.564;17.412;2023-05-22T05:27:45;98195.97;;;16.97;78.15
73429;BME280;61643;49.564;17.412;2023-05-22T05:30:11;98202.38;;;17.06;77.80
73429;BME280;61643;49.564;17.412;2023-05-22T05:32:37;98203.38;;;17.10;76.80
73429;BME280;61643;49.564;17.412;2023-05-22T05:35:03;98202.19;;;17.16;76.83
73429;BME280;61643;49.564;17.412;2023-05-22T05:37:29;98197.63;;;17.26;76.31
73429;BME280;61643;49.564;17.412;2023-05-22T05:39:55;98192.63;;;17.33;77.01
73429;BME280;61643;49.564;17.412;2023-05-22T05:42:21;98195.44;;;17.41;81.04
73429;BME280;61643;49.564;17.412;2023-05-22T05:44:47;98190.34;;;17.40;79.79
73429;BME280;61643;49.564;17.412;2023-05-22T05:47:13;98199.69;;;17.47;81.41
73429;BME280;61643;49.564;17.412;2023-05-22T05:49:39;98196.88;;;17.52;80.63
73429;BME280;61643;49.564;17.412;2023-05-22T05:52:05;98188.09;;;17.55;81.36
73429;BME280;61643;49.564;17.412;2023-05-22T05:54:32;98186.41;;;17.59;83.49
73429;BME280;61643;49.564;17.412;2023-05-22T05:56:58;98189.53;;;17.66;82.37
73429;BME280;61643;49.564;17.412;2023-05-22T05:59:24;98191.03;;;17.73;79.95
73429;BME280;61643;49.564;17.412;2023-05-22T06:01:50;98197.91;;;17.70;77.64
73429;BME280;61643;49.564;17.412;2023-05-22T06:04:16;98185.53;;;17.64;78.61
73429;BME280;61643;49.564;17.412;2023-05-22T06:06:42;98184.22;;;17.61;78.39
73429;BME280;61643;49.564;17.412;2023-05-22T06:09:09;98179.56;;;17.62;78.59
73429;BME280;61643;49.564;17.412;2023-05-22T06:11:35;98179.56;;;17.62;79.31
73429;BME280;61643;49.564;17.412;2023-05-22T06:14:03;98176.75;;;17.67;79.58
73429;BME280;61643;49.564;17.412;2023-05-22T06:16:29;98180.16;;;17.73;79.59
73429;BME280;61643;49.564;17.412;2023-05-22T06:18:57;98172.19;;;17.76;79.19
73429;BME280;61643;49.564;17.412;2023-05-22T06:21:23;98174.63;;;17.78;77.10
73429;BME280;61643;49.564;17.412;2023-05-22T06:23:49;98181.34;;;17.80;76.83
73429;BME280;61643;49.564;17.412;2023-05-22T06:26:16;98183.06;;;17.76;79.69
73429;BME280;61643;49.564;17.412;2023-05-22T06:28:43;98177.25;;;17.83;78.81
73429;BME280;61643;49.564;17.412;2023-05-22T06:31:09;98166.03;;;17.84;80.01
73429;BME280;61643;49.564;17.412;2023-05-22T06:33:35;98170.75;;;17.92;77.93
73429;BME280;61643;49.564;17.412;2023-05-22T06:36:02;98162.22;;;17.85;74.47
73429;BME280;61643;49.564;17.412;2023-05-22T06:38:29;98168.84;;;17.93;76.04
73429;BME280;61643;49.564;17.412;2023-05-22T06:40:55;98174.88;;;18.03;77.33
73429;BME280;61643;49.564;17.412;2023-05-22T06:43:21;98179.81;;;18.15;77.66
73429;BME280;61643;49.564;17.412;2023-05-22T06:45:48;98171.69;;;18.24;76.49
73429;BME280;61643;49.564;17.412;2023-05-22T06:48:13;98173.69;;;18.32;77.11
73429;BME280;61643;49.564;17.412;2023-05-22T06:50:40;98179.22;;;18.40;76.58
73429;BME280;61643;49.564;17.412;2023-05-22T06:53:06;98168.19;;;18.45;78.78
73429;BME280;61643;49.564;17.412;2023-05-22T06:55:32;98172.06;;;18.66;78.12
73429;BME280;61643;49.564;17.412;2023-05-22T06:57:58;98172.66;;;18.77;76.79
73429;BME280;61643;49.564;17.412;2023-05-22T07:00:24;98181.50;;;18.83;75.58
73429;BME280;61643;49.564;17.412;2023-05-22T07:02:50;98178.78;;;18.83;74.03
73429;BME280;61643;49.564;17.412;2023-05-22T07:05:16;98179.56;;;18.83;74.36
73429;BME280;61643;49.564;17.412;2023-05-22T07:07:42;98179.41;;;18.80;74.58
73429;BME280;61643;49.564;17.412;2023-05-22T07:10:09;98180.19;;;18.80;74.44
73429;BME280;61643;49.564;17.412;2023-05-22T07:12:35;98177.09;;;18.73;73.47
73429;BME280;61643;49.564;17.412;2023-05-22T07:15:02;98180.94;;;18.72;74.43
73429;BME280;61643;49.564;17.412;2023-05-22T07:17:28;98175.78;;;18.71;74.80
73429;BME280;61643;49.564;17.412;2023-05-22T07:19:54;98181.19;;;18.62;76.38
73429;BME280;61643;49.564;17.412;2023-05-22T07:22:20;98180.50;;;18.56;75.93
73429;BME280;61643;49.564;17.412;2023-05-22T07:24:46;98176.25;;;18.50;77.49
73429;BME280;61643;49.564;17.412;2023-05-22T07:27:12;98176.78;;;18.52;77.20
73429;BME280;61643;49.564;17.412;2023-05-22T07:29:38;98186.34;;;18.50;76.78
73429;BME280;61643;49.564;17.412;2023-05-22T07:32:04;98182.81;;;18.49;76.53
73429;BME280;61643;49.564;17.412;2023-05-22T07:34:30;98182.00;;;18.49;75.94
73429;BME280;61643;49.564;17.412;2023-05-22T07:36:59;98171.72;;;18.46;76.61
73429;BME280;61643;49.564;17.412;2023-05-22T07:39:26;98185.28;;;18.51;76.36
73429;BME280;61643;49.564;17.412;2023-05-22T07:41:52;98189.66;;;18.60;77.26
73429;BME280;61643;49.564;17.412;2023-05-22T07:44:18;98186.59;;;18.76;78.57
73429;BME280;61643;49.564;17.412;2023-05-22T07:46:44;98180.69;;;18.82;83.29
73429;BME280;61643;49.564;17.412;2023-05-22T07:49:10;98190.75;;;18.95;79.81
73429;BME280;61643;49.564;17.412;2023-05-22T07:51:36;98181.28;;;19.01;77.78
73429;BME280;61643;49.564;17.412;2023-05-22T07:54:03;98179.38;;;19.02;78.85
73429;BME280;61643;49.564;17.412;2023-05-22T07:56:29;98182.13;;;19.10;76.76
73429;BME280;61643;49.564;17.412;2023-05-22T07:58:55;98179.59;;;19.14;75.41
73429;BME280;61643;49.564;17.412;2023-05-22T08:01:21;98182.00;;;19.15;75.84
73429;BME280;61643;49.564;17.412;2023-05-22T08:03:47;98180.53;;;19.09;76.62
73429;BME280;61643;49.564;17.412;2023-05-22T08:06:13;98178.19;;;19.16;78.72
73429;BME280;61643;49.564;17.412;2023-05-22T08:08:40;98171.69;;;19.35;76.93
73429;BME280;61643;49.564;17.412;2023-05-22T08:11:06;98169.13;;;19.38;77.65
73429;BME280;61643;49.564;17.412;2023-05-22T08:13:32;98167.75;;;19.49;76.54
73429;BME280;61643;49.564;17.412;2023-05-22T08:15:58;98174.47;;;19.43;74.05
73429;BME280;61643;49.564;17.412;2023-05-22T08:18:24;98168.78;;;19.40;74.09
73429;BME280;61643;49.564;17.412;2023-05-22T08:20:52;98170.53;;;19.36;76.45
73429;BME280;61643;49.564;17.412;2023-05-22T08:23:18;98167.03;;;19.35;76.56
73429;BME280;61643;49.564;17.412;2023-05-22T08:25:45;98166.53;;;19.33;75.97
73429;BME280;61643;49.564;17.412;2023-05-22T08:28:11;98164.47;;;19.39;76.19
73429;BME280;61643;49.564;17.412;2023-05-22T08:30:37;98168.19;;;19.43;75.74
73429;BME280;61643;49.564;17.412;2023-05-22T08:33:03;98167.22;;;19.39;76.46
73429;BME280;61643;49.564;17.412;2023-05-22T08:35:29;98165.97;;;19.45;77.08
73429;BME280;61643;49.564;17.412;2023-05-22T08:37:55;98160.50;;;19.45;77.30
73429;BME280;61643;49.564;17.412;2023-05-22T08:40:21;98167.59;;;19.46;76.89
73429;BME280;61643;49.564;17.412;2023-05-22T08:42:48;98159.88;;;19.48;78.82
73429;BME280;61643;49.564;17.412;2023-05-22T08:45:18;98155.84;;;19.45;76.04
73429;BME280;61643;49.564;17.412;2023-05-22T08:47:47;98161.41;;;19.40;73.61
73429;BME280;61643;49.564;17.412;2023-05-22T08:50:16;98154.53;;;19.43;75.55
73429;BME280;61643;49.564;17.412;2023-05-22T08:52:50;98155.53;;;19.47;76.13
73429;BME280;61643;49.564;17.412;2023-05-22T08:55:18;98158.00;;;19.57;76.08
73429;BME280;61643;49.564;17.412;2023-05-22T08:57:44;98159.94;;;19.65;76.08
73429;BME280;61643;49.564;17.412;2023-05-22T09:00:11;98163.50;;;19.74;78.01
73429;BME280;61643;49.564;17.412;2023-05-22T09:02:37;98152.91;;;19.81;76.32
73429;BME280;61643;49.564;17.412;2023-05-22T09:05:07;98151.97;;;19.86;76.38
73429;BME280;61643;49.564;17.412;2023-05-22T09:07:34;98148.75;;;19.92;77.19
73429;BME280;61643;49.564;17.412;2023-05-22T09:10:00;98146.38;;;19.99;75.77
73429;BME280;61643;49.564;17.412;2023-05-22T09:12:30;98152.81;;;20.03;73.88
73429;BME280;61643;49.564;17.412;2023-05-22T09:15:06;98151.66;;;20.04;73.85
73429;BME280;61643;49.564;17.412;2023-05-22T09:17:33;98147.16;;;20.08;75.11
73429;BME280;61643;49.564;17.412;2023-05-22T09:19:59;98144.75;;;20.15;76.19
73429;BME280;61643;49.564;17.412;2023-05-22T09:22:34;98143.81;;;20.20;74.50
73429;BME280;61643;49.564;17.412;2023-05-22T09:25:03;98141.22;;;20.24;73.24
73429;BME280;61643;49.564;17.412;2023-05-22T09:27:29;98140.13;;;20.25;73.87
73429;BME280;61643;49.564;17.412;2023-05-22T09:29:56;98139.19;;;20.29;74.26
73429;BME280;61643;49.564;17.412;2023-05-22T09:32:22;98127.59;;;20.32;74.91
73429;BME280;61643;49.564;17.412;2023-05-22T09:34:49;98134.66;;;20.42;75.78
73429;BME280;61643;49.564;17.412;2023-05-22T09:37:16;98134.97;;;20.49;74.42
73429;BME280;61643;49.564;17.412;2023-05-22T09:39:44;98131.59;;;20.52;74.26
73429;BME280;61643;49.564;17.412;2023-05-22T09:42:10;98133.69;;;20.55;73.09
73429;BME280;61643;49.564;17.412;2023-05-22T09:44:38;98144.31;;;20.56;72.94
73429;BME280;61643;49.564;17.412;2023-05-22T09:47:07;98141.09;;;20.63;75.26
73429;BME280;61643;49.564;17.412;2023-05-22T09:49:44;98137.84;;;20.70;72.33
73429;BME280;61643;49.564;17.412;2023-05-22T09:52:11;98140.88;;;20.77;71.52
73429;BME280;61643;49.564;17.412;2023-05-22T09:54:46;98136.38;;;20.81;69.19
73429;BME280;61643;49.564;17.412;2023-05-22T09:57:16;98140.22;;;20.88;72.37
73429;BME280;61643;49.564;17.412;2023-05-22T09:59:49;98142.63;;;20.98;75.12
73429;BME280;61643;49.564;17.412;2023-05-22T10:02:23;98144.06;;;21.13;69.23
73429;BME280;61643;49.564;17.412;2023-05-22T10:04:49;98143.56;;;21.20;69.87
73429;BME280;61643;49.564;17.412;2023-05-22T10:07:23;98149.34;;;21.27;69.40
73429;BME280;61643;49.564;17.412;2023-05-22T10:09:57;98146.91;;;21.25;65.40
73429;BME280;61643;49.564;17.412;2023-05-22T10:12:25;98147.06;;;21.29;68.23
73429;BME280;61643;49.564;17.412;2023-05-22T10:14:54;98146.25;;;21.37;71.02
73429;BME280;61643;49.564;17.412;2023-05-22T10:17:20;98148.00;;;21.41;69.25
73429;BME280;61643;49.564;17.412;2023-05-22T10:19:46;98145.41;;;21.45;66.92
73429;BME280;61643;49.564;17.412;2023-05-22T10:22:13;98140.72;;;21.45;66.63
73429;BME280;61643;49.564;17.412;2023-05-22T10:24:46;98134.25;;;21.50;68.46
73429;BME280;61643;49.564;17.412;2023-05-22T10:27:13;98144.38;;;21.58;69.71
73429;BME280;61643;49.564;17.412;2023-05-22T10:29:49;98135.03;;;21.59;66.97
73429;BME280;61643;49.564;17.412;2023-05-22T10:32:29;98135.97;;;21.63;64.93
73429;BME280;61643;49.564;17.412;2023-05-22T10:35:07;98130.34;;;21.59;63.77
73429;BME280;61643;49.564;17.412;2023-05-22T10:37:44;98135.31;;;21.66;65.37
73429;BME280;61643;49.564;17.412;2023-05-22T10:40:18;98134.44;;;21.74;65.99
73429;BME280;61643;49.564;17.412;2023-05-22T10:42:46;98128.09;;;21.82;66.39
73429;BME280;61643;49.564;17.412;2023-05-22T10:45:12;98131.94;;;21.90;66.22
73429;BME280;61643;49.564;17.412;2023-05-22T10:47:38;98131.66;;;21.91;64.24
73429;BME280;61643;49.564;17.412;2023-05-22T10:50:08;98133.38;;;21.96;64.31
73429;BME280;61643;49.564;17.412;2023-05-22T10:52:36;98122.25;;;21.92;62.33
73429;BME280;61643;49.564;17.412;2023-05-22T10:55:09;98127.75;;;21.92;63.67
73429;BME280;61643;49.564;17.412;2023-05-22T10:57:37;98124.81;;;21.97;64.95
73429;BME280;61643;49.564;17.412;2023-05-22T11:00:13;98114.31;;;21.99;64.57
73429;BME280;61643;49.564;17.412;2023-05-22T11:02:44;98115.13;;;22.00;63.76
73429;BME280;61643;49.564;17.412;2023-05-22T11:08:34;98112.88;;;22.02;64.22
73429;BME280;61643;49.564;17.412;2023-05-22T11:10:57;98107.16;;;22.07;64.44
73429;BME280;61643;49.564;17.412;2023-05-22T11:13:26;98103.91;;;22.14;66.43
73429;BME280;61643;49.564;17.412;2023-05-22T11:15:55;98102.09;;;22.18;65.77
73429;BME280;61643;49.564;17.412;2023-05-22T11:18:23;98095.59;;;22.22;66.67
73429;BME280;61643;49.564;17.412;2023-05-22T11:20:52;98093.00;;;22.26;64.25
73429;BME280;61643;49.564;17.412;2023-05-22T11:23:18;98091.38;;;22.25;62.44
73429;BME280;61643;49.564;17.412;2023-05-22T11:25:44;98082.28;;;22.33;65.53
73429;BME280;61643;49.564;17.412;2023-05-22T11:28:11;98086.75;;;22.37;65.17
73429;BME280;61643;49.564;17.412;2023-05-22T11:30:37;98081.53;;;22.44;65.00
73429;BME280;61643;49.564;17.412;2023-05-22T11:33:03;98084.88;;;22.50;63.38
73429;BME280;61643;49.564;17.412;2023-05-22T11:35:29;98076.44;;;22.55;63.04
73429;BME280;61643;49.564;17.412;2023-05-22T11:37:56;98082.97;;;22.63;61.47
73429;BME280;61643;49.564;17.412;2023-05-22T11:40:25;98079.91;;;22.64;57.96
73429;BME280;61643;49.564;17.412;2023-05-22T11:42:52;98078.56;;;22.70;61.29
73429;BME280;61643;49.564;17.412;2023-05-22T11:45:18;98086.13;;;22.73;58.55
73429;BME280;61643;49.564;17.412;2023-05-22T11:47:44;98083.97;;;22.79;58.85
73429;BME280;61643;49.564;17.412;2023-05-22T11:50:11;98089.91;;;22.81;59.63
73429;BME280;61643;49.564;17.412;2023-05-22T11:52:39;98077.44;;;22.83;59.73
73429;BME280;61643;49.564;17.412;2023-05-22T11:55:08;98072.69;;;22.92;60.24
73429;BME280;61643;49.564;17.412;2023-05-22T11:57:34;98080.47;;;23.02;59.75
73429;BME280;61643;49.564;17.412;2023-05-22T12:00:03;98080.25;;;23.08;58.29
73429;BME280;61643;49.564;17.412;2023-05-22T12:02:31;98064.34;;;23.13;58.27
73429;BME280;61643;49.564;17.412;2023-05-22T12:04:57;98076.25;;;23.17;57.68
73429;BME280;61643;49.564;17.412;2023-05-22T12:07:24;98068.13;;;23.21;57.43
73429;BME280;61643;49.564;17.412;2023-05-22T12:09:51;98070.53;;;23.22;57.73
73429;BME280;61643;49.564;17.412;2023-05-22T12:12:17;98063.88;;;23.23;59.10
73429;BME280;61643;49.564;17.412;2023-05-22T12:14:45;98067.66;;;23.31;59.09
73429;BME280;61643;49.564;17.412;2023-05-22T12:17:12;98059.91;;;23.33;58.28
73429;BME280;61643;49.564;17.412;2023-05-22T12:19:39;98056.69;;;23.31;56.92
73429;BME280;61643;49.564;17.412;2023-05-22T12:22:05;98060.34;;;23.35;55.72
73429;BME280;61643;49.564;17.412;2023-05-22T12:24:38;98060.94;;;23.28;53.52
73429;BME280;61643;49.564;17.412;2023-05-22T12:27:09;98053.03;;;23.39;55.12
73429;BME280;61643;49.564;17.412;2023-05-22T12:29:36;98055.44;;;23.52;52.80
73429;BME280;61643;49.564;17.412;2023-05-22T12:32:03;98055.06;;;23.66;54.38
73429;BME280;61643;49.564;17.412;2023-05-22T12:34:42;98054.63;;;23.64;54.34
73429;BME280;61643;49.564;17.412;2023-05-22T12:37:23;98047.56;;;23.51;48.92
73429;BME280;61643;49.564;17.412;2023-05-22T12:40:01;98045.25;;;23.53;51.80
73429;BME280;61643;49.564;17.412;2023-05-22T12:42:27;98045.47;;;23.48;50.43
73429;BME280;61643;49.564;17.412;2023-05-22T12:44:55;98049.94;;;23.52;49.76
73429;BME280;61643;49.564;17.412;2023-05-22T12:47:22;98034.59;;;23.51;52.04
73429;BME280;61643;49.564;17.412;2023-05-22T12:49:48;98040.22;;;23.55;48.69
73429;BME280;61643;49.564;17.412;2023-05-22T12:52:15;98041.72;;;23.40;45.69
73429;BME280;61643;49.564;17.412;2023-05-22T12:54:41;98041.00;;;23.31;48.70
73429;BME280;61643;49.564;17.412;2023-05-22T12:57:07;98032.31;;;23.29;47.96
73429;BME280;61643;49.564;17.412;2023-05-22T12:59:33;98039.09;;;23.44;49.96
73429;BME280;61643;49.564;17.412;2023-05-22T13:02:03;98038.41;;;23.47;50.48
73429;BME280;61643;49.564;17.412;2023-05-22T13:04:30;98037.25;;;23.48;48.86
73429;BME280;61643;49.564;17.412;2023-05-22T13:06:56;98032.19;;;23.38;46.75
73429;BME280;61643;49.564;17.412;2023-05-22T13:09:21;98029.81;;;23.36;46.19